Time;durP1;ratioP1;P1;durP2;ratioP2;P2;SDS_P1;SDS_P2;PMS_P1;PMS_P2;Temp;Humidity;BMP_temperature;BMP_pressure;BME280_temperature;BME280_humidity;BME280_pressure;Samples;Min_cycle;Max_cycle;Signal;HPM_P1;HPM_P2
2022/08/03 00:01:08;;;;;;;28.60;24.00;;;;;;;16.88;76.80;98890.89;433155;1270;99248;-41
2022/08/03 00:11:15;;;;;;;25.70;22.20;;;;;;;16.84;77.09;98892.77;433240;1270;108815;-41
2022/08/03 00:21:23;;;;;;;33.90;26.10;;;;;;;16.77;77.01;98890.17;432248;1269;99715;-39
2022/08/03 00:31:30;;;;;;;37.00;26.00;;;;;;;16.57;77.22;98886.92;433112;1270;112385;-39
2022/08/03 00:41:57;;;;;;;31.10;27.10;;;;;;;16.47;77.82;98891.16;433278;1270;109189;-39
2022/08/03 00:52:04;;;;;;;34.70;27.40;;;;;;;16.45;77.85;98894.58;433166;1270;98874;-39
2022/08/03 01:02:15;;;;;;;32.30;25.90;;;;;;;16.37;78.17;98894.61;433410;1270;109133;-40
2022/08/03 01:23:10;;;;;;;34.80;24.90;;;;;;;16.44;78.73;98893.66;433469;1268;112472;-39
2022/08/03 01:43:28;;;;;;;26.90;23.90;;;;;;;16.15;78.79;98890.13;433410;1268;99241;-39
2022/08/03 01:53:58;;;;;;;34.10;24.10;;;;;;;16.13;79.16;98892.63;433349;1268;108908;-39
2022/08/03 02:04:04;;;;;;;29.60;25.10;;;;;;;16.21;79.39;98884.77;433386;1268;99257;-39
2022/08/03 02:14:14;;;;;;;28.20;24.90;;;;;;;16.15;79.26;98873.64;433709;1268;112366;-39
2022/08/03 02:24:21;;;;;;;31.90;26.60;;;;;;;16.08;79.36;98874.02;433106;1268;109010;-40
2022/08/03 02:34:33;;;;;;;30.50;27.30;;;;;;;15.97;79.60;98868.36;433536;1268;99228;-41
2022/08/03 02:54:52;;;;;;;35.40;28.80;;;;;;;15.47;80.29;98867.48;433205;1268;99236;-41
2022/08/03 03:05:01;;;;;;;30.50;24.80;;;;;;;15.50;80.78;98867.04;433453;1268;112399;-40
2022/08/03 03:15:31;;;;;;;34.70;24.60;;;;;;;15.69;80.75;98877.96;433207;1268;108837;-40
2022/08/03 03:25:40;;;;;;;29.50;26.30;;;;;;;15.63;80.51;98882.66;433254;1270;99231;-40
2022/08/03 03:35:48;;;;;;;33.00;25.20;;;;;;;15.62;80.62;98888.14;433568;1269;109117;-41
2022/08/03 03:45:57;;;;;;;31.00;27.30;;;;;;;15.74;80.74;98888.02;433694;1270;99152;-40
2022/08/03 03:56:04;;;;;;;32.60;26.50;;;;;;;15.96;80.76;98891.30;433168;1269;112409;-41
2022/08/03 04:16:37;;;;;;;29.30;25.60;;;;;;;17.15;80.37;98908.16;433459;1268;99254;-41
2022/08/03 04:26:50;;;;;;;29.60;25.00;;;;;;;18.06;79.73;98915.94;433630;1268;108663;-41
2022/08/03 04:36:56;;;;;;;26.40;23.60;;;;;;;18.83;79.00;98916.14;433949;1268;98045;-40
2022/08/03 04:47:03;;;;;;;30.60;23.00;;;;;;;19.53;78.26;98913.27;433826;1268;111946;-40
2022/08/03 04:57:12;;;;;;;30.90;24.60;;;;;;;19.29;77.36;98924.95;433887;1268;108811;-40
2022/08/03 05:07:29;;;;;;;25.50;20.50;;;;;;;18.80;77.37;98929.14;433470;1269;98824;-40
2022/08/03 05:27:49;;;;;;;21.10;17.90;;;;;;;20.27;77.86;98921.39;433299;1268;549461;-39
2022/08/03 05:37:56;;;;;;;18.40;16.70;;;;;;;21.40;76.52;98923.94;433800;1268;112695;-41
2022/08/03 05:48:04;;;;;;;19.10;17.20;;;;;;;21.56;75.52;98938.11;433253;1269;108795;-39
2022/08/03 05:58:10;;;;;;;20.10;17.40;;;;;;;20.96;74.43;98947.10;433772;1268;99778;-40
2022/08/03 06:08:17;;;;;;;18.30;16.40;;;;;;;20.48;74.48;98948.45;433635;1268;108894;-37
2022/08/03 06:18:24;;;;;;;19.50;17.40;;;;;;;20.36;75.03;98951.73;433374;1268;99245;-40
2022/08/03 06:28:31;;;;;;;18.50;15.10;;;;;;;21.53;75.76;98950.86;433448;1270;112428;-40
2022/08/03 06:49:04;;;;;;;19.50;13.30;;;;;;;24.05;73.52;98960.35;433473;1268;99232;-40
2022/08/03 06:59:11;;;;;;;12.10;11.00;;;;;;;24.72;71.34;98957.92;433698;1268;109081;-41
2022/08/03 07:09:38;;;;;;;11.20;10.10;;;;;;;25.49;69.65;98961.03;433829;1268;99260;-40
2022/08/03 07:19:47;;;;;;;8.80;8.10;;;;;;;26.07;67.85;98958.91;433489;1270;112035;-40
2022/08/03 07:40:02;;;;;;;17.80;12.80;;;;;;;26.95;65.69;98967.02;433564;1268;99948;-41
2022/08/03 07:50:10;;;;;;;9.40;8.00;;;;;;;26.34;64.41;98971.05;433662;1268;111991;-41
2022/08/03 08:00:19;;;;;;;8.60;7.80;;;;;;;25.89;64.48;98979.20;433678;1268;107637;-43
2022/08/03 08:10:27;;;;;;;17.00;8.40;;;;;;;26.80;64.23;98981.77;433578;1267;98009;-41
2022/08/03 08:30:44;;;;;;;12.90;9.30;;;;;;;27.20;60.86;98981.40;433518;1268;108829;-41
2022/08/03 08:40:50;;;;;;;11.20;9.00;;;;;;;26.94;59.30;98981.42;433572;1268;99363;-40
2022/08/03 08:51:00;;;;;;;8.90;8.10;;;;;;;27.45;58.93;98977.52;433360;1268;108797;-40
2022/08/03 09:01:07;;;;;;;8.90;8.10;;;;;;;27.45;56.48;98976.72;433337;1268;99369;-41
2022/08/03 09:11:14;;;;;;;9.90;9.00;;;;;;;27.30;56.70;98974.70;433038;1268;112250;-41
2022/08/03 09:21:20;;;;;;;10.20;9.20;;;;;;;27.24;56.69;98972.71;432965;1268;108703;-40
2022/08/03 09:31:35;;;;;;;;;;;;;;;27.20;56.54;98970.45;432778;1269;99258;-40
2022/08/03 09:41:42;;;;;;;15.50;12.00;;;;;;;26.85;56.10;98964.45;432829;1271;108716;-40
2022/08/03 09:51:49;;;;;;;26.80;20.60;;;;;;;27.01;56.13;98961.46;432469;1270;98854;-40
2022/08/03 10:02:20;;;;;;;16.90;12.20;;;;;;;26.71;55.58;98955.53;432796;1271;112400;-40
2022/08/03 10:12:28;;;;;;;34.00;25.70;;;;;;;26.93;55.76;98952.98;433231;1269;109106;-41
2022/08/03 10:22:39;;;;;;;28.40;22.60;;;;;;;26.83;56.00;98950.67;433697;1267;98680;-41
2022/08/03 10:32:52;;;;;;;25.40;22.70;;;;;;;26.76;56.09;98950.08;432844;1268;109699;-40
2022/08/03 10:43:05;;;;;;;29.40;23.70;;;;;;;26.64;55.72;98948.13;433175;1268;98016;-41
2022/08/03 10:53:12;;;;;;;25.10;20.70;;;;;;;27.09;54.58;98946.32;433315;1268;112468;-39
2022/08/03 11:03:24;;;;;;;23.70;19.20;;;;;;;27.06;54.53;98943.56;432986;1268;108866;-41
2022/08/03 11:13:32;;;;;;;20.80;17.10;;;;;;;27.43;54.27;98931.83;432926;1268;98848;-40
2022/08/03 11:23:46;;;;;;;17.50;15.50;;;;;;;26.81;53.52;98930.27;433291;1268;108870;-40
2022/08/03 11:34:13;;;;;;;17.30;14.80;;;;;;;26.73;54.52;98919.36;433187;1268;99237;-40
2022/08/03 11:44:41;;;;;;;14.60;12.70;;;;;;;27.49;54.33;98907.67;433102;1268;112547;-40
2022/08/03 11:54:52;;;;;;;15.00;11.90;;;;;;;27.83;52.97;98895.83;433356;1268;107910;-41
2022/08/03 12:05:03;;;;;;;11.00;9.20;;;;;;;28.21;52.55;98899.13;433697;1268;98835;-38
2022/08/03 12:15:11;;;;;;;11.30;10.00;;;;;;;28.42;51.57;98897.15;433201;1268;112336;-40
2022/08/03 12:25:25;;;;;;;8.20;7.50;;;;;;;28.58;51.48;98884.59;433230;1267;108728;-39
2022/08/03 12:35:46;;;;;;;6.10;5.60;;;;;;;28.62;50.20;98881.90;433506;1267;99253;-41
2022/08/03 12:46:14;;;;;;;7.20;6.60;;;;;;;28.96;50.35;98873.60;433680;1267;109000;-42
2022/08/03 12:56:21;;;;;;;8.50;6.70;;;;;;;29.08;49.44;98867.67;433655;1268;97963;-40
2022/08/03 13:06:28;;;;;;;7.00;6.30;;;;;;;28.95;49.16;98861.52;433305;1268;111951;-40
2022/08/03 13:16:35;;;;;;;6.70;6.20;;;;;;;28.90;48.78;98856.34;433424;1268;107773;-40
2022/08/03 13:26:42;;;;;;;9.90;7.00;;;;;;;28.87;48.13;98855.36;432968;1268;99257;-41
2022/08/03 13:36:49;;;;;;;8.20;7.30;;;;;;;28.76;47.56;98856.92;433147;1268;108784;-39
2022/08/03 13:47:17;;;;;;;8.30;7.50;;;;;;;28.54;47.00;98848.56;433694;1267;98039;-40
2022/08/03 13:57:24;;;;;;;7.10;6.60;;;;;;;28.26;46.48;98845.99;433456;1268;112322;-39
2022/08/03 14:07:51;;;;;;;9.00;7.20;;;;;;;28.08;46.32;98837.10;433217;1268;108951;-40
2022/08/03 14:18:03;;;;;;;9.60;7.50;;;;;;;28.01;46.46;98833.14;433389;1267;98860;-41
2022/08/03 14:28:11;;;;;;;10.50;7.40;;;;;;;28.12;46.75;98826.27;433005;1269;108834;-41
2022/08/03 14:38:18;;;;;;;7.90;7.20;;;;;;;28.01;46.21;98821.41;433145;1270;98809;-40
2022/08/03 14:48:26;;;;;;;7.70;7.00;;;;;;;28.07;46.06;98816.10;433498;1270;112415;-40
2022/08/03 14:58:53;;;;;;;7.10;6.40;;;;;;;28.05;46.04;98806.55;433393;1271;107922;-41
2022/08/03 15:09:00;;;;;;;11.60;6.60;;;;;;;28.16;46.28;98800.46;432253;1270;98854;-42
2022/08/03 15:19:27;;;;;;;6.90;6.30;;;;;;;28.13;45.76;98795.69;433145;1270;109374;-39
2022/08/03 15:29:54;;;;;;;6.90;6.30;;;;;;;28.02;45.89;98789.06;433873;1269;98021;-40
2022/08/03 15:40:14;;;;;;;9.90;6.20;;;;;;;27.95;45.50;98783.02;433484;1269;112935;-40
2022/08/03 15:50:21;;;;;;;8.40;7.00;;;;;;;27.90;46.00;98781.61;433609;1268;109623;-41
2022/08/03 16:00:29;;;;;;;7.30;6.70;;;;;;;27.77;45.80;98777.19;433595;1269;99241;-39
2022/08/03 16:10:39;;;;;;;9.30;7.30;;;;;;;27.72;45.93;98773.91;433798;1269;108589;-40
2022/08/03 16:20:48;;;;;;;8.30;7.50;;;;;;;27.59;45.78;98762.44;433191;1269;97960;-39
2022/08/03 16:30:55;;;;;;;7.60;7.00;;;;;;;27.42;45.55;98757.75;433080;1270;112532;-39
2022/08/03 16:41:03;;;;;;;7.90;7.30;;;;;;;27.27;45.58;98754.31;433490;1270;108658;-40
2022/08/03 16:51:10;;;;;;;7.60;6.90;;;;;;;27.08;45.66;98751.27;433494;1270;98838;-39
2022/08/03 17:01:17;;;;;;;8.50;6.70;;;;;;;26.95;45.88;98753.41;433787;1267;107653;-39
2022/08/03 17:11:30;;;;;;;8.00;7.00;;;;;;;26.76;46.24;98759.17;433637;1267;99208;-40
2022/08/03 17:21:45;;;;;;;8.00;6.50;;;;;;;26.57;46.79;98768.87;433744;1267;111994;-40
2022/08/03 17:31:56;;;;;;;8.50;7.00;;;;;;;26.36;47.18;98771.19;432392;1270;666291;-39
2022/08/03 17:42:04;;;;;;;8.50;7.80;;;;;;;26.10;47.86;98779.30;433631;1267;100045;-39
2022/08/03 17:52:37;;;;;;;8.60;7.80;;;;;;;25.73;48.28;98787.21;433644;1267;108831;-40
2022/08/03 18:03:18;;;;;;;8.70;7.90;;;;;;;25.39;48.82;98786.80;433452;1267;99248;-40
2022/08/03 18:13:34;;;;;;;13.50;8.00;;;;;;;24.87;49.62;98794.58;433356;1267;112382;-41
2022/08/03 18:23:44;;;;;;;13.20;8.50;;;;;;;24.31;50.56;98797.59;433599;1267;108825;-40
2022/08/03 18:33:58;;;;;;;10.40;9.40;;;;;;;23.66;51.87;98804.02;433738;1267;99270;-40
2022/08/03 18:44:26;;;;;;;10.80;9.40;;;;;;;23.10;53.39;98816.09;433627;1268;112599;-40
2022/08/03 18:54:53;;;;;;;20.30;9.70;;;;;;;22.65;54.64;98831.35;433788;1267;108596;-40
2022/08/03 19:05:16;;;;;;;14.20;9.60;;;;;;;22.26;55.64;98835.41;433643;1267;99229;-39
2022/08/03 19:15:27;;;;;;;13.30;11.90;;;;;;;21.90;56.63;98842.98;433380;1268;108938;-39
2022/08/03 19:25:56;;;;;;;22.30;14.20;;;;;;;21.71;57.60;98844.27;433393;1268;99296;-40
2022/08/03 19:36:03;;;;;;;18.30;13.10;;;;;;;21.35;58.25;98843.60;433561;1268;112460;-40
2022/08/03 19:46:19;;;;;;;21.10;14.40;;;;;;;21.06;59.05;98847.91;433634;1267;108880;-39
2022/08/03 20:06:35;;;;;;;21.80;17.40;;;;;;;20.63;60.72;98847.31;433675;1267;109336;-41
2022/08/03 20:16:43;;;;;;;23.20;18.20;;;;;;;20.47;61.11;98845.10;433838;1267;98939;-40
2022/08/03 20:26:52;;;;;;;19.00;16.30;;;;;;;20.32;61.90;98846.72;433735;1268;112806;-41
2022/08/03 20:36:59;;;;;;;16.80;14.00;;;;;;;20.36;62.74;98844.30;433549;1270;108777;-41
2022/08/03 20:47:11;;;;;;;20.00;17.90;;;;;;;20.37;63.00;98843.61;433376;1269;99344;-41
2022/08/03 20:57:29;;;;;;;17.00;15.00;;;;;;;19.98;63.16;98841.81;433058;1270;108643;-42
2022/08/03 21:17:54;;;;;;;11.50;10.40;;;;;;;19.61;64.14;98844.23;432653;1270;112807;-41
2022/08/03 21:28:07;;;;;;;15.10;10.90;;;;;;;19.62;64.36;98842.72;432937;1270;108526;-40
2022/08/03 21:38:21;;;;;;;15.80;14.10;;;;;;;19.57;64.73;98846.61;432929;1270;98860;-40
2022/08/03 21:48:35;;;;;;;13.50;12.10;;;;;;;19.43;65.13;98849.14;432941;1270;108272;-41
2022/08/03 21:58:43;;;;;;;20.00;14.40;;;;;;;19.26;65.53;98850.69;432874;1270;99833;-41
2022/08/03 22:08:56;;;;;;;25.00;19.80;;;;;;;19.08;66.06;98851.46;432586;1270;112546;-41
2022/08/03 22:19:04;;;;;;;30.70;19.50;;;;;;;18.98;66.57;98855.14;432970;1270;108794;-41
2022/08/03 22:29:12;;;;;;;28.50;22.60;;;;;;;18.94;66.79;98854.83;432893;1270;99333;-41
2022/08/03 22:39:19;;;;;;;33.50;24.90;;;;;;;18.86;67.25;98853.44;433063;1270;108808;-40
2022/08/03 22:49:35;;;;;;;26.30;21.80;;;;;;;18.82;67.85;98853.31;433086;1270;99269;-40
2022/08/03 22:59:43;;;;;;;21.00;18.70;;;;;;;19.07;68.02;98855.48;432794;1270;112433;-41
2022/08/03 23:09:50;;;;;;;21.10;18.60;;;;;;;19.27;67.95;98855.93;433092;1270;108808;-40
2022/08/03 23:20:02;;;;;;;22.10;18.80;;;;;;;19.27;67.67;98855.50;433178;1270;99220;-40
2022/08/03 23:30:12;;;;;;;22.50;19.50;;;;;;;19.15;67.82;98851.73;433319;1270;108720;-41
2022/08/03 23:40:27;;;;;;;30.10;18.30;;;;;;;19.01;68.06;98843.97;433368;1269;99133;-39
2022/08/03 23:50:32;;;;;;;23.50;18.00;;;;;;;18.97;68.29;98837.94;433281;1270;112504;-40
